createdAt,value
2023-05-12T00:01:55.924Z,101359.99
2023-05-12T00:04:22.967Z,101361.55
2023-05-12T00:06:51.390Z,101359.54
2023-05-12T00:09:20.757Z,101361.31
2023-05-12T00:11:48.640Z,101359.66
2023-05-12T00:14:15.922Z,101360.27
2023-05-12T00:16:43.511Z,101360.74
2023-05-12T00:19:10.691Z,101365.60
2023-05-12T00:21:37.765Z,101362.46
2023-05-12T00:24:05.086Z,101360.79
2023-05-12T00:26:32.156Z,101359.36
2023-05-12T00:28:59.186Z,101361.61
2023-05-12T00:31:26.367Z,101361.32
2023-05-12T00:33:53.369Z,101366.45
2023-05-12T00:36:22.106Z,101366.02
2023-05-12T00:38:49.146Z,101365.86
2023-05-12T00:41:18.679Z,101364.73
2023-05-12T00:43:45.832Z,101362.98
2023-05-12T00:46:12.839Z,101365.04
2023-05-12T00:48:39.900Z,101365.77
2023-05-12T00:51:06.881Z,101366.77
2023-05-12T00:53:47.675Z,101370.39
2023-05-12T00:56:18.130Z,101369.79
2023-05-12T00:58:45.553Z,101369.89
2023-05-12T01:01:13.232Z,101371.77
2023-05-12T01:03:41.114Z,101374.92
2023-05-12T01:06:33.453Z,101377.35
2023-05-12T01:09:00.532Z,101374.58
2023-05-12T01:11:27.970Z,101377.35
2023-05-12T01:13:56.658Z,101380.31
2023-05-12T01:16:29.372Z,101382.11
2023-05-12T01:18:56.651Z,101383.71
2023-05-12T01:21:24.071Z,101381.73
2023-05-12T01:24:06.815Z,101377.54
2023-05-12T01:26:34.926Z,101379.20
2023-05-12T01:29:02.649Z,101380.70
2023-05-12T01:31:32.436Z,101384.84
2023-05-12T01:33:59.648Z,101389.37
2023-05-12T01:36:28.048Z,101389.90
2023-05-12T01:38:56.587Z,101388.79
2023-05-12T01:41:23.963Z,101385.77
2023-05-12T01:43:51.609Z,101386.48
2023-05-12T01:46:18.838Z,101381.52
2023-05-12T01:52:29.392Z,101384.73
2023-05-12T01:54:57.393Z,101384.10
2023-05-12T01:57:26.433Z,101383.23
2023-05-12T01:59:56.238Z,101387.45
2023-05-12T02:02:23.568Z,101385.85
2023-05-12T02:04:50.776Z,101384.70
2023-05-12T02:07:17.913Z,101388.05
2023-05-12T02:09:45.310Z,101386.17
2023-05-12T02:12:12.378Z,101385.19
2023-05-12T02:14:39.572Z,101388.84
2023-05-12T02:17:06.800Z,101389.17
2023-05-12T02:19:34.641Z,101389.40
2023-05-12T02:22:01.862Z,101388.60
2023-05-12T02:24:28.910Z,101393.27
2023-05-12T02:26:56.001Z,101395.55
2023-05-12T02:29:23.394Z,101389.90
2023-05-12T02:31:50.759Z,101389.58
2023-05-12T02:34:18.031Z,101393.88
2023-05-12T02:36:46.710Z,101393.96
2023-05-12T02:39:14.282Z,101392.41
2023-05-12T02:41:41.354Z,101391.79
2023-05-12T02:44:08.569Z,101392.01
2023-05-12T02:46:38.148Z,101390.29
2023-05-12T02:49:09.082Z,101388.61
2023-05-12T02:51:36.190Z,101392.52
2023-05-12T02:54:03.301Z,101391.64
2023-05-12T02:56:32.544Z,101392.14
2023-05-12T02:59:01.302Z,101393.32
2023-05-12T03:01:28.368Z,101389.45
2023-05-12T03:03:56.628Z,101389.19
2023-05-12T03:06:25.158Z,101389.83
2023-05-12T03:08:52.147Z,101388.13
2023-05-12T03:11:19.163Z,101393.02
2023-05-12T03:13:46.424Z,101390.48
2023-05-12T03:16:13.423Z,101393.30
2023-05-12T03:18:40.535Z,101394.90
2023-05-12T03:21:08.028Z,101405.38
2023-05-12T03:23:37.152Z,101404.45
2023-05-12T03:26:04.227Z,101411.41
2023-05-12T03:28:32.545Z,101414.55
2023-05-12T03:30:59.608Z,101407.81
2023-05-12T03:33:26.828Z,101410.58
2023-05-12T03:35:54.507Z,101412.02
2023-05-12T03:38:22.475Z,101417.02
2023-05-12T03:40:52.946Z,101422.72
2023-05-12T03:43:22.387Z,101419.05
2023-05-12T03:45:51.293Z,101418.69
2023-05-12T03:48:18.454Z,101419.11
2023-05-12T03:50:45.751Z,101414.44
2023-05-12T03:53:14.841Z,101415.20
2023-05-12T03:55:44.439Z,101417.47
2023-05-12T03:58:11.447Z,101418.39
2023-05-12T04:00:38.999Z,101417.46
2023-05-12T04:03:09.045Z,101408.30
2023-05-12T04:05:39.775Z,101410.06
2023-05-12T04:08:07.440Z,101405.02
2023-05-12T04:10:42.101Z,101406.46
2023-05-12T04:13:09.576Z,101409.54
2023-05-12T04:15:36.753Z,101404.80
2023-05-12T04:18:04.331Z,101406.13
2023-05-12T04:20:31.726Z,101409.62
2023-05-12T04:22:58.903Z,101412.89
2023-05-12T04:25:26.856Z,101416.60
2023-05-12T04:27:54.601Z,101417.07
2023-05-12T04:30:23.464Z,101421.16
2023-05-12T04:32:50.944Z,101422.70
2023-05-12T04:35:18.252Z,101421.84
2023-05-12T04:37:45.499Z,101420.96
2023-05-12T04:40:13.808Z,101423.95
2023-05-12T04:42:42.515Z,101423.74
2023-05-12T04:45:20.577Z,101424.13
2023-05-12T04:47:48.085Z,101423.55
2023-05-12T04:50:16.037Z,101424.79
2023-05-12T04:52:43.673Z,101420.35
2023-05-12T04:55:12.129Z,101422.15
2023-05-12T04:57:42.274Z,101419.08
2023-05-12T05:00:11.723Z,101416.73
2023-05-12T05:02:53.362Z,101417.56
2023-05-12T05:05:22.733Z,101414.34
2023-05-12T05:07:52.239Z,101416.16
2023-05-12T05:10:20.015Z,101420.55
2023-05-12T05:12:47.996Z,101420.23
2023-05-12T05:15:15.063Z,101420.00
2023-05-12T05:17:43.873Z,101422.67
2023-05-12T05:20:15.249Z,101424.89
2023-05-12T05:22:43.716Z,101423.63
2023-05-12T05:25:14.414Z,101426.02
2023-05-12T05:27:43.590Z,101424.77
2023-05-12T05:30:18.249Z,101423.96
2023-05-12T05:32:46.331Z,101424.88
2023-05-12T05:35:14.184Z,101424.14
2023-05-12T05:37:46.314Z,101421.51
2023-05-12T05:40:14.141Z,101419.61
2023-05-12T05:42:41.882Z,101421.22
2023-05-12T05:45:09.604Z,101416.09
2023-05-12T05:47:38.734Z,101419.90
2023-05-12T05:50:07.452Z,101418.21
2023-05-12T05:52:37.237Z,101420.73
2023-05-12T05:55:05.755Z,101420.54
2023-05-12T05:57:33.803Z,101421.67
2023-05-12T06:00:05.277Z,101418.96
2023-05-12T06:02:42.188Z,101423.34
2023-05-12T06:05:14.237Z,101420.12
2023-05-12T06:07:43.484Z,101419.59
2023-05-12T06:10:13.352Z,101417.91
2023-05-12T06:12:43.480Z,101418.84
2023-05-12T06:15:12.830Z,101417.21
2023-05-12T06:17:45.402Z,101418.79
2023-05-12T06:20:13.764Z,101416.55
2023-05-12T06:22:53.671Z,101419.39
2023-05-12T06:25:30.591Z,101417.05
2023-05-12T06:27:59.085Z,101416.86
2023-05-12T06:30:28.835Z,101416.25
2023-05-12T06:32:56.336Z,101416.36
2023-05-12T06:35:25.870Z,101416.42
2023-05-12T06:37:54.827Z,101418.74
2023-05-12T06:40:22.359Z,101416.69
2023-05-12T06:42:50.385Z,101415.59
2023-05-12T06:45:21.159Z,101417.32
2023-05-12T06:47:51.658Z,101412.14
2023-05-12T06:50:19.042Z,101414.95
2023-05-12T06:52:54.051Z,101415.75
2023-05-12T06:55:22.263Z,101415.98
2023-05-12T06:57:51.901Z,101417.58
2023-05-12T07:00:19.241Z,101413.61
2023-05-12T07:02:46.373Z,101414.54
2023-05-12T07:05:13.412Z,101415.34
2023-05-12T07:07:48.992Z,101413.15
2023-05-12T07:10:17.881Z,101413.81
2023-05-12T07:12:46.146Z,101412.42
2023-05-12T07:15:14.621Z,101410.67
2023-05-12T07:17:41.727Z,101413.10
2023-05-12T07:20:10.084Z,101412.30
2023-05-12T07:22:38.978Z,101411.84
2023-05-12T07:25:08.020Z,101406.00
2023-05-12T07:27:35.782Z,101410.21
2023-05-12T07:30:06.708Z,101408.92
2023-05-12T07:32:35.050Z,101411.62
2023-05-12T07:35:02.305Z,101407.05
2023-05-12T07:37:32.448Z,101408.08
2023-05-12T07:39:59.771Z,101404.98
2023-05-12T07:42:35.969Z,101403.29
2023-05-12T07:45:03.507Z,101410.04
2023-05-12T07:47:32.091Z,101409.13
2023-05-12T07:50:00.293Z,101410.60
2023-05-12T07:52:36.942Z,101405.59
2023-05-12T07:55:09.266Z,101403.23
2023-05-12T07:57:38.483Z,101403.73
2023-05-12T08:00:06.679Z,101400.67
2023-05-12T08:05:49.985Z,101393.79
2023-05-12T08:08:17.770Z,101397.27
2023-05-12T08:10:46.061Z,101400.02
2023-05-12T08:13:15.999Z,101397.69
2023-05-12T08:15:43.277Z,101397.08
2023-05-12T08:18:11.061Z,101392.44
2023-05-12T08:20:38.464Z,101391.81
2023-05-12T08:23:08.494Z,101391.61
2023-05-12T08:25:36.578Z,101389.72
2023-05-12T08:28:21.113Z,101391.29
2023-05-12T08:31:04.959Z,101389.09
2023-05-12T08:33:36.152Z,101384.52
2023-05-12T08:36:08.216Z,101382.13
2023-05-12T08:38:37.245Z,101381.27
2023-05-12T08:41:20.334Z,101385.20
2023-05-12T08:43:51.224Z,101381.07
2023-05-12T08:46:19.242Z,101377.41
2023-05-12T08:48:48.076Z,101381.55
2023-05-12T08:51:15.367Z,101379.63
2023-05-12T08:53:45.346Z,101379.27
2023-05-12T08:58:46.239Z,101376.90
2023-05-12T09:01:15.224Z,101372.55
2023-05-12T09:03:42.903Z,101373.71
2023-05-12T09:06:11.138Z,101370.25
2023-05-12T09:08:39.401Z,101369.48
2023-05-12T09:11:06.556Z,101368.44
2023-05-12T09:13:38.274Z,101368.45
2023-05-12T09:16:05.396Z,101369.77
2023-05-12T09:18:50.527Z,101369.38
2023-05-12T09:21:18.330Z,101367.31
2023-05-12T09:24:08.238Z,101365.23
2023-05-12T09:26:47.981Z,101362.95
2023-05-12T09:29:27.826Z,101359.64
2023-05-12T09:32:12.840Z,101360.62
2023-05-12T09:34:44.230Z,101356.27
2023-05-12T09:37:15.038Z,101356.73
2023-05-12T09:39:44.935Z,101356.56
2023-05-12T09:42:13.250Z,101351.02
2023-05-12T09:44:41.547Z,101346.73
2023-05-12T09:47:10.979Z,101348.11
2023-05-12T09:49:42.456Z,101345.74
2023-05-12T09:52:09.483Z,101344.89
2023-05-12T09:54:36.686Z,101348.36
2023-05-12T09:57:05.341Z,101341.33
2023-05-12T09:59:39.686Z,101332.93
2023-05-12T10:02:08.631Z,101330.30
2023-05-12T10:04:53.015Z,101328.13
2023-05-12T10:07:24.716Z,101324.27
2023-05-12T10:09:53.844Z,101326.83
2023-05-12T10:12:27.587Z,101326.81
2023-05-12T10:14:55.084Z,101325.45
2023-05-12T10:17:25.311Z,101326.98
2023-05-12T10:19:55.894Z,101322.94
2023-05-12T10:22:27.264Z,101322.41
2023-05-12T10:25:03.366Z,101322.77
2023-05-12T10:27:35.801Z,101322.21
2023-05-12T10:30:07.785Z,101314.98
2023-05-12T10:32:38.030Z,101317.11
2023-05-12T10:35:12.861Z,101313.25
2023-05-12T10:37:40.024Z,101312.77
2023-05-12T10:40:07.837Z,101310.40
2023-05-12T10:42:39.488Z,101308.56
2023-05-12T10:45:18.091Z,101308.14
2023-05-12T10:47:47.380Z,101304.41
2023-05-12T10:50:15.078Z,101301.77
2023-05-12T10:53:02.821Z,101301.30
2023-05-12T10:55:31.839Z,101298.84
2023-05-12T10:58:07.549Z,101291.60
2023-05-12T11:00:52.892Z,101292.69
2023-05-12T11:03:25.759Z,101292.86
2023-05-12T11:06:05.194Z,101288.90
2023-05-12T11:08:35.963Z,101286.80
2023-05-12T11:11:06.418Z,101282.69
2023-05-12T11:13:34.206Z,101280.27
2023-05-12T11:16:21.468Z,101288.58
2023-05-12T11:18:48.930Z,101288.58
2023-05-12T11:21:24.994Z,101290.83
2023-05-12T11:24:00.587Z,101284.23
2023-05-12T11:26:28.833Z,101287.05
2023-05-12T11:28:59.059Z,101284.66
2023-05-12T11:31:26.413Z,101278.65
2023-05-12T11:34:13.150Z,101276.60
2023-05-12T11:36:43.222Z,101270.77
2023-05-12T11:39:27.139Z,101276.17
2023-05-12T11:42:12.181Z,101270.67
2023-05-12T11:44:48.805Z,101274.41
2023-05-12T11:47:43.159Z,101270.11
2023-05-12T11:50:27.034Z,101271.55
2023-05-12T11:52:56.844Z,101270.58
2023-05-12T11:55:24.763Z,101264.61
2023-05-12T11:58:00.951Z,101269.61
2023-05-12T12:00:34.331Z,101266.64
2023-05-12T12:03:14.989Z,101265.14
2023-05-12T12:05:47.819Z,101259.75
2023-05-12T12:08:19.360Z,101257.48
2023-05-12T12:10:48.944Z,101256.21
2023-05-12T12:13:24.725Z,101252.11
2023-05-12T12:15:55.663Z,101248.09
2023-05-12T12:18:24.110Z,101248.24
2023-05-12T12:20:54.986Z,101243.04
2023-05-12T12:23:24.096Z,101244.06
2023-05-12T12:25:54.645Z,101242.58
2023-05-12T12:28:23.449Z,101244.69
2023-05-12T12:30:57.148Z,101236.66
2023-05-12T12:33:44.937Z,101238.15
2023-05-12T12:36:12.037Z,101238.48
2023-05-12T12:38:39.090Z,101234.80
2023-05-12T12:41:08.119Z,101233.39
2023-05-12T12:43:36.377Z,101230.35
2023-05-12T12:46:04.347Z,101231.64
2023-05-12T12:48:32.428Z,101230.69
2023-05-12T12:51:00.398Z,101229.92
2023-05-12T12:53:29.117Z,101229.78
2023-05-12T12:55:58.262Z,101231.59
2023-05-12T12:58:30.520Z,101231.89
2023-05-12T13:01:03.200Z,101229.65
2023-05-12T13:03:32.975Z,101226.23
2023-05-12T13:06:13.204Z,101224.94
2023-05-12T13:08:45.042Z,101227.39
2023-05-12T13:11:12.479Z,101225.06
2023-05-12T13:13:40.951Z,101226.91
2023-05-12T13:16:09.134Z,101226.08
2023-05-12T13:18:36.560Z,101225.02
2023-05-12T13:21:04.631Z,101223.25
2023-05-12T13:23:32.262Z,101221.13
2023-05-12T13:26:00.496Z,101216.13
2023-05-12T13:28:31.561Z,101211.31
2023-05-12T13:30:58.629Z,101213.52
2023-05-12T13:33:25.809Z,101213.31
2023-05-12T13:35:52.946Z,101211.91
2023-05-12T13:38:21.208Z,101201.63
2023-05-12T13:40:48.378Z,101197.28
2023-05-12T13:43:15.728Z,101202.77
2023-05-12T13:45:44.402Z,101206.13
2023-05-12T13:48:14.292Z,101205.64
2023-05-12T13:50:41.461Z,101203.65
2023-05-12T13:53:08.810Z,101199.73
2023-05-12T13:55:41.065Z,101201.32
2023-05-12T13:58:15.840Z,101196.79
2023-05-12T14:00:43.455Z,101195.89
2023-05-12T14:03:11.835Z,101193.95
2023-05-12T14:05:39.170Z,101190.90
2023-05-12T14:08:07.345Z,101193.53
2023-05-12T14:10:41.613Z,101193.36
2023-05-12T14:13:27.804Z,101192.10
2023-05-12T14:16:02.597Z,101190.06
2023-05-12T14:18:36.338Z,101186.43
2023-05-12T14:21:03.378Z,101183.00
2023-05-12T14:23:30.565Z,101182.06
2023-05-12T14:25:57.708Z,101178.77
2023-05-12T14:28:24.922Z,101176.52
2023-05-12T14:30:51.967Z,101174.48
2023-05-12T14:33:19.143Z,101172.66
2023-05-12T14:35:55.685Z,101174.71
2023-05-12T14:38:30.585Z,101174.36
2023-05-12T14:40:57.701Z,101177.58
2023-05-12T14:43:24.848Z,101178.70
2023-05-12T14:45:54.917Z,101181.09
2023-05-12T14:48:23.926Z,101181.33
2023-05-12T14:50:54.722Z,101182.84
2023-05-12T14:53:22.541Z,101184.66
2023-05-12T14:55:50.011Z,101184.81
2023-05-12T14:58:18.132Z,101187.64
2023-05-12T15:00:45.462Z,101184.15
2023-05-12T15:03:13.846Z,101181.84
2023-05-12T15:06:01.575Z,101178.06
2023-05-12T15:08:28.263Z,101178.04
2023-05-12T15:10:55.744Z,101178.65
2023-05-12T15:13:22.916Z,101175.60
2023-05-12T15:15:51.038Z,101175.72
2023-05-12T15:18:20.090Z,101170.69
2023-05-12T15:20:47.253Z,101168.09
2023-05-12T15:23:14.502Z,101170.91
2023-05-12T15:25:41.615Z,101166.63
2023-05-12T15:28:08.775Z,101167.94
2023-05-12T15:30:36.250Z,101170.70
2023-05-12T15:33:06.848Z,101169.39
2023-05-12T15:35:34.200Z,101166.83
2023-05-12T15:38:01.526Z,101169.68
2023-05-12T15:40:31.208Z,101170.20
2023-05-12T15:42:58.916Z,101167.21
2023-05-12T15:45:37.637Z,101168.75
2023-05-12T15:48:09.368Z,101171.39
2023-05-12T15:50:38.608Z,101171.19
2023-05-12T15:53:09.417Z,101172.32
2023-05-12T15:55:36.373Z,101168.41
2023-05-12T15:58:05.887Z,101173.71
2023-05-12T16:00:34.622Z,101169.44
2023-05-12T16:03:02.194Z,101174.64
2023-05-12T16:05:30.098Z,101174.70
2023-05-12T16:07:57.496Z,101174.54
2023-05-12T16:10:24.540Z,101177.89
2023-05-12T16:12:51.762Z,101177.59
2023-05-12T16:15:20.177Z,101177.02
2023-05-12T16:17:47.673Z,101180.21
2023-05-12T16:20:15.637Z,101177.23
2023-05-12T16:22:42.794Z,101180.89
2023-05-12T16:25:09.836Z,101181.36
2023-05-12T16:27:39.101Z,101179.22
2023-05-12T16:30:07.535Z,101182.77
2023-05-12T16:32:34.662Z,101183.20
2023-05-12T16:35:01.758Z,101181.78
2023-05-12T16:37:28.824Z,101182.23
2023-05-12T16:39:55.925Z,101183.65
2023-05-12T16:42:23.042Z,101184.91
2023-05-12T16:45:02.590Z,101184.20
2023-05-12T16:47:29.881Z,101184.65
2023-05-12T16:49:58.589Z,101184.75
2023-05-12T16:52:26.855Z,101185.45
2023-05-12T16:54:56.510Z,101188.58
2023-05-12T16:57:25.199Z,101190.56
2023-05-12T17:00:08.745Z,101194.40
2023-05-12T17:02:36.577Z,101196.27
2023-05-12T17:05:09.801Z,101201.13
2023-05-12T17:07:53.651Z,101201.81
2023-05-12T17:13:12.100Z,101204.43
2023-05-12T17:15:50.291Z,101210.59
2023-05-12T17:21:11.664Z,101212.52
2023-05-12T17:23:39.238Z,101216.93
2023-05-12T17:26:06.512Z,101215.06
2023-05-12T17:28:35.396Z,101216.70
2023-05-12T17:31:02.630Z,101218.35
2023-05-12T17:33:29.784Z,101225.25
2023-05-12T17:36:10.887Z,101231.52
2023-05-12T17:38:39.760Z,101230.16
2023-05-12T17:41:09.275Z,101236.42
2023-05-12T17:43:38.561Z,101236.94
2023-05-12T17:46:07.930Z,101238.08
2023-05-12T17:48:35.573Z,101234.73
2023-05-12T17:51:04.846Z,101240.64
2023-05-12T17:53:35.026Z,101238.52
2023-05-12T17:56:02.577Z,101241.73
2023-05-12T17:58:34.060Z,101245.38
2023-05-12T18:01:02.318Z,101244.69
2023-05-12T18:03:30.167Z,101248.95
2023-05-12T18:05:57.553Z,101253.15
2023-05-12T18:08:24.876Z,101249.52
2023-05-12T18:10:52.114Z,101253.41
2023-05-12T18:13:20.355Z,101256.52
2023-05-12T18:15:50.715Z,101257.94
2023-05-12T18:18:18.858Z,101260.14
2023-05-12T18:20:46.183Z,101259.09
2023-05-12T18:23:13.883Z,101262.70
2023-05-12T18:25:41.059Z,101263.10
2023-05-12T18:28:08.154Z,101267.55
2023-05-12T18:30:35.288Z,101270.09
2023-05-12T18:33:03.347Z,101278.16
2023-05-12T18:35:33.130Z,101283.34
2023-05-12T18:38:00.589Z,101291.51
2023-05-12T18:40:27.558Z,101292.81
2023-05-12T18:42:54.730Z,101291.77
2023-05-12T18:45:23.216Z,101292.01
2023-05-12T18:47:54.850Z,101287.48
2023-05-12T18:50:22.690Z,101288.04
2023-05-12T18:52:50.062Z,101289.16
2023-05-12T18:55:18.521Z,101289.75
2023-05-12T18:57:45.863Z,101289.27
2023-05-12T19:00:13.790Z,101284.73
2023-05-12T19:02:42.655Z,101281.11
2023-05-12T19:05:11.231Z,101279.46
2023-05-12T19:07:39.469Z,101278.71
2023-05-12T19:12:56.960Z,101277.55
2023-05-12T19:15:26.497Z,101278.89
2023-05-12T19:17:57.718Z,101275.11
2023-05-12T19:20:35.356Z,101274.27
2023-05-12T19:23:02.421Z,101275.33
2023-05-12T19:28:18.259Z,101274.98
2023-05-12T19:30:48.759Z,101274.84
2023-05-12T19:33:17.453Z,101273.17
2023-05-12T19:35:44.669Z,101273.04
2023-05-12T19:38:11.629Z,101275.88
2023-05-12T19:40:40.058Z,101277.31
2023-05-12T19:43:10.368Z,101274.52
2023-05-12T19:45:38.322Z,101273.11
2023-05-12T19:48:07.955Z,101274.42
2023-05-12T19:53:41.683Z,101277.69
2023-05-12T19:56:12.059Z,101276.57
2023-05-12T19:58:39.097Z,101280.41
2023-05-12T20:01:14.742Z,101281.90
2023-05-12T20:03:42.240Z,101284.61
2023-05-12T20:06:19.160Z,101281.66
2023-05-12T20:08:51.004Z,101277.15
2023-05-12T20:11:23.071Z,101279.89
2023-05-12T20:13:52.410Z,101279.63
2023-05-12T20:16:24.497Z,101276.20
2023-05-12T20:18:53.196Z,101275.15
2023-05-12T20:21:26.194Z,101274.05
2023-05-12T20:23:56.653Z,101271.91
2023-05-12T20:29:06.644Z,101274.67
2023-05-12T20:31:38.133Z,101273.45
2023-05-12T20:34:16.955Z,101274.59
2023-05-12T20:37:00.126Z,101276.13
2023-05-12T20:39:40.341Z,101280.63
2023-05-12T20:42:15.984Z,101287.86
2023-05-12T20:44:55.642Z,101286.92
2023-05-12T20:47:27.903Z,101290.34
2023-05-12T20:49:59.403Z,101293.34
2023-05-12T20:52:30.380Z,101296.30
2023-05-12T20:55:09.396Z,101294.40
2023-05-12T20:57:42.600Z,101294.48
2023-05-12T21:00:11.886Z,101296.23
2023-05-12T21:02:40.616Z,101302.30
2023-05-12T21:05:10.706Z,101300.74
2023-05-12T21:10:20.661Z,101298.58
2023-05-12T21:12:47.967Z,101299.93
2023-05-12T21:15:15.511Z,101296.38
2023-05-12T21:17:45.518Z,101299.19
2023-05-12T21:20:18.284Z,101301.89
2023-05-12T21:22:46.754Z,101300.05
2023-05-12T21:25:13.919Z,101298.63
2023-05-12T21:27:42.259Z,101301.14
2023-05-12T21:30:11.773Z,101297.01
2023-05-12T21:32:49.013Z,101297.23
2023-05-12T21:35:26.874Z,101309.49
2023-05-12T21:37:54.679Z,101314.17
2023-05-12T21:40:40.377Z,101315.84
2023-05-12T21:43:13.504Z,101313.14
2023-05-12T21:45:41.197Z,101311.52
2023-05-12T21:48:09.969Z,101314.15
2023-05-12T21:50:37.031Z,101316.84
2023-05-12T21:53:06.699Z,101317.85
2023-05-12T21:55:34.131Z,101315.98
2023-05-12T21:58:01.734Z,101318.08
2023-05-12T22:00:45.292Z,101316.77
2023-05-12T22:03:15.926Z,101314.46
2023-05-12T22:05:53.128Z,101315.05
2023-05-12T22:08:20.287Z,101313.77
2023-05-12T22:13:32.344Z,101312.77
2023-05-12T22:16:01.279Z,101312.65
2023-05-12T22:18:29.599Z,101312.09
2023-05-12T22:20:58.306Z,101311.21
2023-05-12T22:23:25.387Z,101313.55
2023-05-12T22:25:52.549Z,101313.42
2023-05-12T22:28:19.620Z,101317.92
2023-05-12T22:30:47.238Z,101320.55
2023-05-12T22:33:16.609Z,101322.33
2023-05-12T22:35:44.487Z,101317.52
2023-05-12T22:38:11.513Z,101317.95
2023-05-12T22:40:38.813Z,101319.55
2023-05-12T22:43:06.985Z,101320.08
2023-05-12T22:45:34.839Z,101318.73
2023-05-12T22:48:02.283Z,101314.61
2023-05-12T22:50:29.970Z,101312.69
2023-05-12T22:52:58.274Z,101312.26
2023-05-12T22:55:30.884Z,101311.98
2023-05-12T22:57:58.653Z,101311.10
2023-05-12T23:00:26.434Z,101313.19
2023-05-12T23:02:53.644Z,101314.41
2023-05-12T23:05:20.765Z,101315.42
2023-05-12T23:07:47.841Z,101318.19
2023-05-12T23:10:15.191Z,101319.62
2023-05-12T23:12:44.753Z,101318.52
2023-05-12T23:15:13.337Z,101313.84
2023-05-12T23:17:40.450Z,101309.27
2023-05-12T23:20:09.852Z,101315.80
2023-05-12T23:22:36.862Z,101315.29
2023-05-12T23:25:04.869Z,101313.14
2023-05-12T23:27:31.884Z,101315.33
2023-05-12T23:30:00.893Z,101315.17
2023-05-12T23:32:28.117Z,101317.20
2023-05-12T23:34:55.385Z,101316.98
2023-05-12T23:37:24.732Z,101317.69
2023-05-12T23:39:51.971Z,101318.17
2023-05-12T23:42:20.193Z,101319.65
2023-05-12T23:44:48.099Z,101320.52
2023-05-12T23:47:15.177Z,101317.77
2023-05-12T23:49:42.210Z,101314.48
2023-05-12T23:52:09.345Z,101317.27
2023-05-12T23:54:36.397Z,101317.13
2023-05-12T23:57:03.471Z,101317.64
2023-05-12T23:59:30.982Z,101316.17
